MACD Below 0

When the MACD crosses below the zero line, then a possible sell signal is generated.

Technicals
Stock Name Action ISIN Quality Score Technical Score Stock Classification Text Default Exchange Day Change % Current Price Rs MACD Last End of Day
Tirupati Starch & Chemicals Ltd. Detail Quote INE314D01011 NA 49 NA BSE 4.71 51.15 -0.04 2021-10-22
National Plastic Technologies Ltd. Detail Quote INE896D01017 NA 58 NA BSE 3.45 69.05 -0.18 2021-10-22
Tarmat Ltd. Detail Quote INE924H01018 33 46 Await Turnaround NSE 2.24 63.8 -0.04 2021-10-22
Linde India Ltd. Detail Quote INE473A01011 72 51 Expensive Performer NSE 1.96 2417.9 -9.74 2021-10-22
Himachal Fibres Ltd. Detail Quote INE723D01021 NA 57 NA BSE 1.61 4.42 -0.01 2021-10-22
NOCIL Ltd. Detail Quote INE163A01018 44 54 Expensive Performer NSE 1.34 272.8 -0.85 2021-10-22
Anant Raj Ltd. Detail Quote INE242C01024 37 51 Expensive Performer NSE 1.26 68.15 -0.06 2021-10-22
Sharda Motor Industries Ltd. Detail Quote INE597I01010 74 53 Mid-range Performer NSE 1.18 601.75 -0.14 2021-10-22
Voltamp Transformers Ltd. Detail Quote INE540H01012 69 50 Mid-range Performer NSE 1.09 1441.55 -1.14 2021-10-22
Sankhya Infotech Ltd. Detail Quote INE877A01013 NA 56 NA BSE 0.82 6.14 -0.03 2021-10-22
Saven Technologies Ltd. Detail Quote INE856B01023 NA 32 NA BSE 0.75 26.9 -0.04 2021-10-22
Summit Securities Ltd. Detail Quote INE519C01017 NA 54 NA NSE 0.6 745.15 -0.82 2021-10-22
Swastika Investmart Ltd. Detail Quote INE691C01014 NA 30 NA BSE 0.48 134.75 -0.1 2021-10-22
TARC Ltd. Detail Quote INE0EK901012 14 53 Momentum Trap NSE 0.36 42.05 -0.1 2021-10-22
Havells India Ltd. Detail Quote INE176B01034 58 50 Expensive Performer NSE 0.28 1289.35 -2.49 2021-10-22
HT Media Ltd. Detail Quote INE501G01024 35 46 Mid-range Performer NSE 0.2 24.95 0 2021-10-22
Atishay Ltd. Detail Quote INE011R01013 NA 33 NA BSE 0.17 30.3 -0.05 2021-10-22
Zenith Healthcare Ltd. Detail Quote INE812B01026 NA 31 NA BSE 0.14 7.07 0 2021-10-22
Lincoln Pharmaceuticals Ltd. Detail Quote INE405C01035 88 52 Strong Performer, Under Radar NSE 0.14 362.75 -1.07 2021-10-22
Kirloskar Industries Ltd. Detail Quote INE250A01039 85 49 Strong Performer, Under Radar NSE 0.13 1561.85 -3.49 2021-10-22
Rane (Madras) Ltd. Detail Quote INE050H01012 40 47 Mid-range Performer NSE 0.03 381.8 0 2021-10-22
Radaan Mediaworks (I) Ltd. Detail Quote INE874F01027 NA 53 NA NSE 0 1.3 -0.01 2021-10-22
Rotographics (India) Ltd. Detail Quote INE364S01014 NA 16 NA BSE 0 12.59 0 2021-10-20
Indbank Merchant Banking Services Ltd. Detail Quote INE841B01017 NA 52 NA NSE 0 23.25 -0.02 2021-10-22
Humming Bird Education Ltd. Detail Quote INE02PC01019 NA 18 NA BSE 0 102 -0.27 2021-10-12
Dhruv Wellness Ltd. Detail Quote INE109Y01011 NA 35 NA BSE 0 78 -0.13 2021-10-07
KJMC Corporate Advisors (India) Ltd. Detail Quote INE602C01011 NA 54 NA BSE 0 20 -0.19 2021-10-20
KBS India Ltd. Detail Quote INE883D01015 NA 47 NA BSE 0 5.56 -0.01 2021-10-22
Shemaroo Entertainment Ltd. Detail Quote INE363M01019 28 57 Momentum Trap NSE -0.04 140.25 -0.52 2021-10-22
Refnol Resins & Chemicals Ltd. Detail Quote INE428C01011 NA 43 NA BSE -0.17 29.8 -0.16 2021-10-22
IOL Chemicals and Pharmaceuticals Ltd. Detail Quote INE485C01011 55 31 Slowing Down Stock NSE -0.23 568.2 -0.48 2021-10-22
Mahanagar Telephone Nigam Ltd. Detail Quote INE153A01019 17 43 Momentum Trap NSE -0.27 18.15 -0.06 2021-10-22
Sundram Fasteners Ltd. Detail Quote INE387A01021 78 50 Expensive Performer NSE -0.29 830.1 -1.88 2021-10-22
Lancor Holdings Ltd. Detail Quote INE572G01025 33 60 Await Turnaround BSE -0.32 12.63 -0.06 2021-10-22
U Y Fincorp Ltd. Detail Quote INE152C01025 NA 61 NA BSE -0.34 14.5 -0.01 2021-10-22
Rallis India Ltd. Detail Quote INE613A01020 74 34 Expensive Performer NSE -0.4 275.55 -0.37 2021-10-22
Elgi Rubber Company Ltd. Detail Quote INE819L01012 58 49 Strong Performer, Under Radar NSE -0.4 37.75 -0.1 2021-10-22
Capacit'e Infraprojects Ltd. Detail Quote INE264T01014 62 31 Value Stock, Under Radar NSE -0.41 168.25 -0.16 2021-10-22
Hero MotoCorp Ltd. Detail Quote INE158A01026 56 34 Falling Comet NSE -0.46 2744.15 -5.84 2021-10-22
KCP Sugar & Industries Corporation Ltd. Detail Quote INE790B01024 31 42 Risky Value NSE -0.46 21.45 -0.08 2021-10-22
GE Power India Ltd. Detail Quote INE878A01011 42 53 Expensive Performer NSE -0.5 307.3 -0.23 2021-10-22
Redington (India) Ltd. Detail Quote INE891D01026 74 60 Strong Performer, Under Radar NSE -0.56 143.05 -0.05 2021-10-22
Winsome Textile Industries Ltd. Detail Quote INE837B01031 49 53 Mid-range Performer BSE -0.69 50.25 -0.04 2021-10-22
Spicejet Ltd. Detail Quote INE285B01017 10 35 Momentum Trap NSE -0.75 73.25 -0.04 2021-10-22
Kanoria Chemicals & Industries Ltd. Detail Quote INE138C01024 90 56 Strong Performer, Under Radar NSE -0.79 181.5 -0.25 2021-10-22
Action Construction Equipment Ltd. Detail Quote INE731H01025 86 54 Mid-range Performer NSE -0.81 244.35 -0.49 2021-10-22
Tera Software Ltd. Detail Quote INE482B01010 30 47 Await Turnaround NSE -0.86 51.85 -0.13 2021-10-22
Cravatex Ltd. Detail Quote INE145E01017 17 56 Momentum Trap BSE -0.87 364.8 -0.51 2021-10-22
Nifty Shariah 25 Detail Quote NIFTYSHARIAH25 NA 46 NA NSE -0.89 6348.42 -16.47 2021-10-22
ARSS Infrastructure Projects Ltd. Detail Quote INE267I01010 21 41 Momentum Trap NSE -0.91 27.3 -0.12 2021-10-22
JSW Steel Ltd. Detail Quote INE019A01038 81 52 Strong Performer, Under Radar NSE -0.93 667.8 -0.28 2021-10-22
JHS Svendgaard Laboratories Ltd. Detail Quote INE544H01014 78 47 Mid-range Performer NSE -1.01 24.5 -0.08 2021-10-22
Keltech Energies Ltd. Detail Quote INE881E01017 56 53 Mid-range Performer BSE -1.02 742.35 -2.8 2021-10-22
Vikas WSP Ltd. Detail Quote INE706A01022 37 30 Slowing Down Stock NSE -1.02 4.85 0 2021-10-22
Citadel Realty & Developers Ltd. Detail Quote INE906D01014 NA 53 NA BSE -1.04 13.3 -0.01 2021-10-22
Ugar Sugar Works Ltd. Detail Quote INE071E01023 56 51 Mid-range Performer NSE -1.08 27.6 -0.04 2021-10-22
Mahindra Logistics Ltd. Detail Quote INE766P01016 58 53 Expensive Performer NSE -1.12 690.25 -2.13 2021-10-22
Subex Ltd. Detail Quote INE754A01055 76 34 Falling Comet NSE -1.14 52.15 -0.03 2021-10-22
Nifty50 Shariah Detail Quote NIFTY50SHARIAH NA 47 NA NSE -1.14 4211.01 -3.6 2021-10-22
Sundaram Brake Lining Ltd. Detail Quote INE073D01013 49 45 Mid-range Performer NSE -1.15 396.95 -0.64 2021-10-22
Nippon India ETF Shariah BeES Detail Quote INF732E01128 NA 50 NA NSE -1.15 438.62 -0.34 2021-10-22
Alkem Laboratories Ltd. Detail Quote INE540L01014 78 53 Expensive Performer NSE -1.16 3747.25 -10.34 2021-10-22
Nifty FMCG Detail Quote NIFTYFMCG NA 49 NA NSE -1.22 38874.8 -60.47 2021-10-22
Gati Ltd. Detail Quote INE152B01027 33 49 Momentum Trap NSE -1.23 136.7 -0.36 2021-10-22
Dhanlaxmi Bank Ltd. Detail Quote INE680A01011 31 46 Risky Value NSE -1.24 15.9 -0.02 2021-10-22
Ginni Filaments Ltd. Detail Quote INE424C01010 56 52 Strong Performer, Under Radar NSE -1.24 31.75 -0.08 2021-10-22
BSE FMCG Sector Detail Quote BSEFASTMOVINGCONSUMERGOODS NA 46 NA BSE -1.26 14304.42 -28.5 2021-10-22
ICICI Prudential FMCG ETF Detail Quote INF109KC1R48 NA 19 NA NSE -1.3 389.4 -0.17 2021-10-22
HB Stockholdings Ltd. Detail Quote INE550B01022 NA 59 NA NSE -1.32 37.5 -0.1 2021-10-22
Liberty Shoes Ltd. Detail Quote INE557B01019 65 50 Strong Performer, Under Radar NSE -1.32 168.25 -0.47 2021-10-22
JM Financial Ltd. Detail Quote INE780C01023 51 43 Mid-range Performer NSE -1.32 89.85 -0.17 2021-10-22
HCL Technologies Ltd. Detail Quote INE860A01027 67 51 Expensive Performer NSE -1.38 1194 -3.69 2021-10-22
Future Consumer Ltd. Detail Quote INE220J01025 14 34 Weak Stock NSE -1.38 7.15 0 2021-10-22
Prozone Intu Properties Ltd. Detail Quote INE195N01013 24 47 Momentum Trap NSE -1.43 27.55 -0.09 2021-10-22
Poly Medicure Ltd. Detail Quote INE205C01021 60 41 Expensive Performer NSE -1.52 919.7 -1.79 2021-10-22
Nifty Pharma Detail Quote NIFTYPHARMA NA 48 NA NSE -1.55 13949.65 -32.5 2021-10-22
Hindustan Media Ventures Ltd. Detail Quote INE871K01015 55 44 Mid-range Performer NSE -1.57 75.35 -0.05 2021-10-22
Dynamatic Technologies Ltd. Detail Quote INE221B01012 33 62 Momentum Trap NSE -1.65 2590.25 -9.28 2021-10-22
Welspun Specialty Solutions Ltd. Detail Quote INE731F01037 46 44 Mid-range Performer BSE -1.73 14.24 -0.04 2021-10-22
Rajshree Polypack Ltd. Detail Quote INE760W01015 NA 53 NA NSE -1.73 156.2 -0.63 2021-10-22
Marathon Nextgen Realty Ltd. Detail Quote INE182D01020 35 55 Expensive Performer NSE -1.74 87.75 -0.21 2021-10-22
Centenial Surgical Suture Ltd. Detail Quote INE405H01018 NA 53 NA BSE -1.85 52.95 -0.04 2021-10-22
Manorama Industries Ltd. Detail Quote INE00VM01010 NA 53 NA BSE -1.87 1473.6 -2.25 2021-10-22
Mayur Leather Products Ltd. Detail Quote INE799E01011 NA 48 NA BSE -1.89 7.8 -0.04 2021-10-22
Texmo Pipes & Products Ltd. Detail Quote INE141K01013 51 54 Mid-range Performer NSE -1.89 49.25 -0.06 2021-10-22
Zodiac Clothing Company Ltd. Detail Quote INE206B01013 26 48 Momentum Trap NSE -1.91 112.75 -0.3 2021-10-22
Hercules Hoists Ltd. Detail Quote INE688E01024 65 46 Mid-range Performer NSE -1.91 141.05 -0.1 2021-10-22
Nippon India Nifty Pharma ETF Detail Quote INF204KC1089 NA 17 NA NSE -1.97 13.94 -0.04 2021-10-22
The United Nilgiri Tea Estates Company Ltd. Detail Quote INE458F01011 47 49 Mid-range Performer NSE -1.98 383.65 -0.97 2021-10-22
V-Guard Industries Ltd. Detail Quote INE951I01027 58 46 Expensive Performer NSE -2.03 248.8 -0.28 2021-10-22
Jyoti Resins & Adhesives Ltd. Detail Quote INE577D01013 60 54 Mid-range Performer BSE -2.26 784.2 -0.34 2021-10-22
STEL Holdings Ltd. Detail Quote INE577L01016 NA 60 NA NSE -2.29 161.85 -0.36 2021-10-22
KMC Speciality Hospitals (India) Ltd. Detail Quote INE879K01018 69 59 Expensive Performer BSE -2.31 63.5 -0.17 2021-10-22
Ritesh International Ltd. Detail Quote INE534D01014 NA 40 NA BSE -2.33 29.4 -0.06 2021-10-22
NMDC Ltd. Detail Quote INE584A01023 74 41 Strong Performer, Under Radar NSE -2.36 142.5 -0.52 2021-10-22
Fairchem Organics Ltd. Detail Quote INE0DNW01011 78 59 Expensive Performer NSE -2.42 1823.8 -1.51 2021-10-22
SNL Bearings Ltd. Detail Quote INE568F01017 65 48 Strong Performer, Under Radar BSE -2.46 236 -0.16 2021-10-22
KM Sugar Mills Ltd. Detail Quote INE157H01023 49 54 Mid-range Performer NSE -2.46 25.75 -0.01 2021-10-22
CHD Chemicals Ltd. Detail Quote INE043U01010 NA 21 NA BSE -2.47 7.9 -0.01 2021-10-22
Rudrabhishek Enterprises Ltd. Detail Quote INE364Z01019 65 39 Expensive Performer NSE -2.52 208.75 -0.06 2021-10-22
Pioneer Investcorp Ltd. Detail Quote INE746D01014 NA 45 NA BSE -2.54 32.55 -0.07 2021-10-22
Alembic Pharmaceuticals Ltd. Detail Quote INE901L01018 76 28 Falling Comet NSE -2.58 767.75 -0.12 2021-10-22
Porwal Auto Components Ltd. Detail Quote INE386I01018 NA 55 NA BSE -2.63 24.05 -0.03 2021-10-22
Healthcare Global Enterprises Ltd. Detail Quote INE075I01017 31 51 Momentum Trap NSE -2.75 231.4 -0.41 2021-10-22
Shreyans Industries Ltd. Detail Quote INE231C01019 53 54 Mid-range Performer NSE -2.76 119.8 -0.2 2021-10-22
Advanced Enzyme Technologies Ltd. Detail Quote INE837H01020 60 33 Falling Comet NSE -2.79 372.3 -1.42 2021-10-22
Fineotex Chemical Ltd. Detail Quote INE045J01026 67 57 Expensive Performer NSE -2.83 118.65 -0.2 2021-10-22
Metalyst Forgings Ltd. Detail Quote INE425A01011 NA 40 NA NSE -2.83 5.15 0 2021-10-22
Laxmi Organic Industries Ltd. Detail Quote INE576O01020 56 36 Expensive Performer NSE -3.02 460.85 -0.42 2021-10-22
Ester Industries Ltd. Detail Quote INE778B01029 40 49 Mid-range Performer NSE -3.14 138.8 -0.19 2021-10-22
New Delhi Television Ltd. Detail Quote INE155G01029 78 53 Strong Performer, Under Radar NSE -3.18 80.75 -0.05 2021-10-22
Asian Hotels (North) Ltd. Detail Quote INE363A01022 28 50 Await Turnaround NSE -3.2 83.25 -0.33 2021-10-22
Eveready Industries India Ltd. Detail Quote INE128A01029 46 51 Expensive Performer NSE -3.24 347.95 -0.02 2021-10-22
Safari Industries (India) Ltd. Detail Quote INE429E01023 26 53 Momentum Trap NSE -3.25 807.5 -1.43 2021-10-22
Tata Steel Long Products Ltd. Detail Quote INE674A01014 88 42 Strong Performer, Under Radar NSE -3.31 840.25 -6.07 2021-10-22
Brooks Laboratories Ltd. Detail Quote INE650L01011 17 53 Momentum Trap NSE -3.35 122.45 -0.54 2021-10-22
AMJ Land Holdings Ltd. Detail Quote INE606A01024 NA 53 NA NSE -3.36 34.55 -0.06 2021-10-22
Suraj Products Ltd. Detail Quote INE069E01019 49 54 Mid-range Performer BSE -3.48 66.6 -0.03 2021-10-22
Sonata Software Ltd. Detail Quote INE269A01021 76 52 Expensive Performer NSE -3.53 799.05 -0.81 2021-10-22
N R Agarwal Industries Ltd. Detail Quote INE740D01017 56 52 Strong Performer, Under Radar NSE -3.56 301.85 -0.66 2021-10-22
BLS International Services Ltd. Detail Quote INE153T01027 60 59 Expensive Performer NSE -3.72 226.75 -0.66 2021-10-22
Jindal Poly Films Ltd. Detail Quote INE197D01010 60 51 Strong Performer, Under Radar NSE -3.8 960.1 -2.73 2021-10-22
Jigar Cables Ltd. Detail Quote INE943X01015 NA 31 NA BSE -3.85 25 -0.55 2021-10-08
Repco Home Finance Ltd. Detail Quote INE612J01015 51 34 Mid-range Performer NSE -3.9 294.35 -1.42 2021-10-22
Chandni Machines Ltd. Detail Quote INE01GZ01011 NA 40 NA BSE -4.14 8.33 -0.05 2021-10-20
Bodhtree Consulting Ltd. Detail Quote INE104F01011 55 50 Mid-range Performer BSE -4.16 39.15 -0.17 2021-10-22
Jubilant Foodworks Ltd. Detail Quote INE797F01012 65 52 Expensive Performer NSE -4.33 3701.25 -2.22 2021-10-22
Integra Telecommunication & Software Ltd. Detail Quote INE256F01019 NA 55 NA BSE -4.36 53.75 -0.13 2021-10-22
Beryl Drugs Ltd. Detail Quote INE415H01017 NA 58 NA BSE -4.65 12.3 -0.11 2021-10-22
KCL Infra Projects Ltd. Detail Quote INE469F01026 NA 50 NA BSE -4.66 2.25 0 2021-10-22
Agio Paper & Industries Ltd. Detail Quote INE112C01011 NA 54 NA BSE -4.7 3.04 -0.02 2021-10-22
Simbhaoli Sugars Ltd. Detail Quote INE748T01016 26 56 Await Turnaround NSE -4.85 24.5 -0.31 2021-10-22
Shree Rajasthan Syntex Ltd. Detail Quote INE796C01011 NA 58 NA BSE -4.91 3.29 -0.01 2021-10-22
Majestic Research Services & Solutions Ltd. Detail Quote INE196R01012 NA 49 NA BSE -4.91 7.94 -0.02 2021-10-22
Gujarat Credit Corporation Ltd. Detail Quote INE034B01019 NA 55 NA BSE -4.91 8.13 -0.04 2021-10-22
Shree Ganesh Elastoplast Ltd. Detail Quote INE400N01017 NA 56 NA BSE -4.92 20.3 -0.26 2021-10-22
Howard Hotels Ltd. Detail Quote INE931B01016 NA 48 NA BSE -4.92 5.99 -0.07 2021-10-22
Vaghani Techno-Build Ltd. Detail Quote INE554H01021 NA 48 NA BSE -4.93 8.49 -0.09 2021-10-18
Peeti Securities Ltd. Detail Quote INE328D01011 NA 50 NA BSE -4.94 13.86 -0.06 2021-10-22
Ruchika Industries India Ltd. Detail Quote INE185U01019 NA 22 NA BSE -4.97 32.5 -0.17 2021-10-22
Easy Trip Planners Ltd. Detail Quote INE07O001018 NA 36 NA NSE -4.99 500.35 -2.91 2021-10-22
Mercury Laboratories Ltd. Detail Quote INE947G01011 88 37 Mid-range Performer BSE -5.04 669.5 -0.76 2021-10-22
Silver Touch Technologies Ltd. Detail Quote INE625X01018 NA 33 NA NSE -5.74 147.05 -0.03 2021-10-22
Parsvnath Developers Ltd. Detail Quote INE561H01026 21 55 Momentum Trap NSE -5.98 14.15 -0.06 2021-10-22
Dhanlaxmi Fabrics Ltd. Detail Quote INE953D01016 NA 50 NA BSE -6.92 22.2 -0.2 2021-10-22
HEG Ltd. Detail Quote INE545A01016 55 45 Expensive Performer NSE -6.99 2037.9 -0.16 2021-10-22
Sulabh Engineers & Services Ltd. Detail Quote INE673M01029 NA 47 NA BSE -7.66 2.05 -0.01 2021-10-22
Silver Oak (India) Ltd. Detail Quote INE870J01019 NA 53 NA BSE -8.29 37.05 -0.18 2021-10-22
Diana Tea Company Ltd. Detail Quote INE012E01035 NA 52 NA BSE -9.09 23.5 -0.04 2021-10-22
Prime Fresh Ltd. Detail Quote INE442V01012 NA 47 NA BSE -9.38 55.1 -0.11 2021-10-12
Yug Decor Ltd. Detail Quote INE796W01019 NA 26 NA BSE -17.67 24.7 -0.15 2021-10-20